sensor_id;sensor_type;location;lat;lon;timestamp;P1;durP1;ratioP1;P2;durP2;ratioP2
56949;SDS011;74437;50.080;19.924;2024-03-08T00:32:12;16.92;;;8.48;;
56949;SDS011;74437;50.080;19.924;2024-03-08T00:34:38;19.65;;;9.35;;
56949;SDS011;74437;50.080;19.924;2024-03-08T00:37:03;26.38;;;10.63;;
56949;SDS011;74437;50.080;19.924;2024-03-08T00:39:29;17.70;;;9.57;;
56949;SDS011;74437;50.080;19.924;2024-03-08T00:41:54;18.17;;;9.18;;
56949;SDS011;74437;50.080;19.924;2024-03-08T00:44:19;21.48;;;10.00;;
56949;SDS011;74437;50.080;19.924;2024-03-08T00:46:45;18.33;;;8.45;;
56949;SDS011;74437;50.080;19.924;2024-03-08T00:49:10;17.90;;;8.73;;
56949;SDS011;74437;50.080;19.924;2024-03-08T00:51:37;19.77;;;9.15;;
56949;SDS011;74437;50.080;19.924;2024-03-08T00:54:03;20.38;;;8.70;;
56949;SDS011;74437;50.080;19.924;2024-03-08T00:56:28;21.20;;;10.23;;
56949;SDS011;74437;50.080;19.924;2024-03-08T00:58:53;17.05;;;8.75;;
56949;SDS011;74437;50.080;19.924;2024-03-08T01:01:19;19.50;;;9.40;;
56949;SDS011;74437;50.080;19.924;2024-03-08T01:03:44;19.60;;;8.52;;
56949;SDS011;74437;50.080;19.924;2024-03-08T01:06:09;19.63;;;9.25;;
56949;SDS011;74437;50.080;19.924;2024-03-08T01:08:36;27.00;;;10.18;;
56949;SDS011;74437;50.080;19.924;2024-03-08T01:11:03;19.73;;;10.50;;
56949;SDS011;74437;50.080;19.924;2024-03-08T01:13:29;26.23;;;11.07;;
56949;SDS011;74437;50.080;19.924;2024-03-08T01:15:55;19.58;;;9.02;;
56949;SDS011;74437;50.080;19.924;2024-03-08T01:18:20;20.65;;;9.45;;
56949;SDS011;74437;50.080;19.924;2024-03-08T01:20:46;19.67;;;8.95;;
56949;SDS011;74437;50.080;19.924;2024-03-08T01:23:11;16.65;;;8.75;;
56949;SDS011;74437;50.080;19.924;2024-03-08T01:25:37;21.13;;;9.50;;
56949;SDS011;74437;50.080;19.924;2024-03-08T01:28:02;19.80;;;8.35;;
56949;SDS011;74437;50.080;19.924;2024-03-08T01:30:28;22.05;;;9.85;;
56949;SDS011;74437;50.080;19.924;2024-03-08T01:32:53;20.83;;;10.02;;
56949;SDS011;74437;50.080;19.924;2024-03-08T01:35:18;16.40;;;8.35;;
56949;SDS011;74437;50.080;19.924;2024-03-08T01:37:44;19.88;;;9.25;;
56949;SDS011;74437;50.080;19.924;2024-03-08T01:40:09;22.45;;;9.85;;
56949;SDS011;74437;50.080;19.924;2024-03-08T01:42:34;20.15;;;9.75;;
56949;SDS011;74437;50.080;19.924;2024-03-08T01:45:03;18.55;;;8.63;;
56949;SDS011;74437;50.080;19.924;2024-03-08T01:47:30;23.13;;;9.68;;
56949;SDS011;74437;50.080;19.924;2024-03-08T01:49:57;19.77;;;9.82;;
56949;SDS011;74437;50.080;19.924;2024-03-08T01:52:24;21.67;;;9.43;;
56949;SDS011;74437;50.080;19.924;2024-03-08T01:54:51;17.63;;;9.23;;
56949;SDS011;74437;50.080;19.924;2024-03-08T01:57:16;23.30;;;9.90;;
56949;SDS011;74437;50.080;19.924;2024-03-08T01:59:42;23.98;;;11.20;;
56949;SDS011;74437;50.080;19.924;2024-03-08T02:02:08;21.15;;;9.60;;
56949;SDS011;74437;50.080;19.924;2024-03-08T02:04:36;19.73;;;8.80;;
56949;SDS011;74437;50.080;19.924;2024-03-08T02:07:03;20.15;;;9.93;;
56949;SDS011;74437;50.080;19.924;2024-03-08T02:09:30;22.15;;;10.27;;
56949;SDS011;74437;50.080;19.924;2024-03-08T02:11:55;24.75;;;10.18;;
56949;SDS011;74437;50.080;19.924;2024-03-08T02:14:22;20.88;;;9.32;;
56949;SDS011;74437;50.080;19.924;2024-03-08T02:16:47;22.08;;;9.68;;
56949;SDS011;74437;50.080;19.924;2024-03-08T02:19:13;23.08;;;10.48;;
56949;SDS011;74437;50.080;19.924;2024-03-08T02:21:38;21.27;;;8.55;;
56949;SDS011;74437;50.080;19.924;2024-03-08T02:24:04;20.08;;;9.23;;
56949;SDS011;74437;50.080;19.924;2024-03-08T02:26:30;17.95;;;8.32;;
56949;SDS011;74437;50.080;19.924;2024-03-08T02:28:55;17.73;;;8.43;;
56949;SDS011;74437;50.080;19.924;2024-03-08T02:31:21;18.15;;;9.00;;
56949;SDS011;74437;50.080;19.924;2024-03-08T02:33:46;26.70;;;9.40;;
56949;SDS011;74437;50.080;19.924;2024-03-08T02:36:12;20.08;;;10.05;;
56949;SDS011;74437;50.080;19.924;2024-03-08T02:38:38;19.23;;;8.25;;
56949;SDS011;74437;50.080;19.924;2024-03-08T02:41:03;21.00;;;10.27;;
56949;SDS011;74437;50.080;19.924;2024-03-08T02:43:28;19.75;;;9.60;;
56949;SDS011;74437;50.080;19.924;2024-03-08T02:45:54;22.48;;;10.75;;
56949;SDS011;74437;50.080;19.924;2024-03-08T02:48:19;21.15;;;9.75;;
56949;SDS011;74437;50.080;19.924;2024-03-08T02:50:46;22.33;;;10.00;;
56949;SDS011;74437;50.080;19.924;2024-03-08T02:53:12;24.20;;;10.73;;
56949;SDS011;74437;50.080;19.924;2024-03-08T02:55:38;18.17;;;9.25;;
56949;SDS011;74437;50.080;19.924;2024-03-08T02:58:04;20.23;;;9.68;;
56949;SDS011;74437;50.080;19.924;2024-03-08T03:00:30;22.45;;;10.20;;
56949;SDS011;74437;50.080;19.924;2024-03-08T03:02:58;23.00;;;10.70;;
56949;SDS011;74437;50.080;19.924;2024-03-08T03:05:23;18.85;;;8.95;;
56949;SDS011;74437;50.080;19.924;2024-03-08T03:07:49;18.35;;;9.15;;
56949;SDS011;74437;50.080;19.924;2024-03-08T03:10:18;24.52;;;9.65;;
56949;SDS011;74437;50.080;19.924;2024-03-08T03:12:45;21.20;;;9.48;;
56949;SDS011;74437;50.080;19.924;2024-03-08T03:15:11;18.80;;;10.23;;
56949;SDS011;74437;50.080;19.924;2024-03-08T03:17:37;20.90;;;10.15;;
56949;SDS011;74437;50.080;19.924;2024-03-08T03:20:06;20.17;;;9.98;;
56949;SDS011;74437;50.080;19.924;2024-03-08T03:22:38;20.27;;;9.95;;
56949;SDS011;74437;50.080;19.924;2024-03-08T03:25:12;24.15;;;10.40;;
56949;SDS011;74437;50.080;19.924;2024-03-08T03:27:37;27.25;;;11.57;;
56949;SDS011;74437;50.080;19.924;2024-03-08T03:30:04;26.92;;;11.82;;
56949;SDS011;74437;50.080;19.924;2024-03-08T03:32:46;21.83;;;10.10;;
56949;SDS011;74437;50.080;19.924;2024-03-08T03:35:31;18.33;;;9.60;;
56949;SDS011;74437;50.080;19.924;2024-03-08T03:37:57;26.90;;;10.20;;
56949;SDS011;74437;50.080;19.924;2024-03-08T03:40:35;21.73;;;10.95;;
56949;SDS011;74437;50.080;19.924;2024-03-08T03:43:02;18.65;;;9.88;;
56949;SDS011;74437;50.080;19.924;2024-03-08T03:45:28;21.15;;;9.55;;
56949;SDS011;74437;50.080;19.924;2024-03-08T03:47:54;15.63;;;8.40;;
56949;SDS011;74437;50.080;19.924;2024-03-08T03:50:19;23.20;;;11.13;;
56949;SDS011;74437;50.080;19.924;2024-03-08T03:52:48;22.50;;;9.48;;
56949;SDS011;74437;50.080;19.924;2024-03-08T03:55:14;22.58;;;10.32;;
56949;SDS011;74437;50.080;19.924;2024-03-08T03:57:40;24.80;;;10.32;;
56949;SDS011;74437;50.080;19.924;2024-03-08T04:00:06;24.08;;;10.75;;
56949;SDS011;74437;50.080;19.924;2024-03-08T04:02:35;23.75;;;10.98;;
56949;SDS011;74437;50.080;19.924;2024-03-08T04:05:01;24.48;;;11.10;;
56949;SDS011;74437;50.080;19.924;2024-03-08T04:07:27;23.27;;;11.10;;
56949;SDS011;74437;50.080;19.924;2024-03-08T04:09:52;25.60;;;11.07;;
56949;SDS011;74437;50.080;19.924;2024-03-08T04:12:17;25.15;;;11.00;;
56949;SDS011;74437;50.080;19.924;2024-03-08T04:14:43;28.67;;;12.40;;
56949;SDS011;74437;50.080;19.924;2024-03-08T04:17:09;19.50;;;9.65;;
56949;SDS011;74437;50.080;19.924;2024-03-08T04:22:03;27.02;;;11.07;;
56949;SDS011;74437;50.080;19.924;2024-03-08T04:24:28;19.52;;;9.35;;
56949;SDS011;74437;50.080;19.924;2024-03-08T04:26:55;20.88;;;9.43;;
56949;SDS011;74437;50.080;19.924;2024-03-08T04:29:21;18.17;;;8.48;;
56949;SDS011;74437;50.080;19.924;2024-03-08T04:31:47;18.90;;;9.20;;
56949;SDS011;74437;50.080;19.924;2024-03-08T04:34:12;22.65;;;10.07;;
56949;SDS011;74437;50.080;19.924;2024-03-08T04:36:38;20.83;;;9.02;;
56949;SDS011;74437;50.080;19.924;2024-03-08T04:39:03;24.83;;;9.38;;
56949;SDS011;74437;50.080;19.924;2024-03-08T04:41:28;24.95;;;10.40;;
56949;SDS011;74437;50.080;19.924;2024-03-08T04:43:55;19.60;;;9.70;;
56949;SDS011;74437;50.080;19.924;2024-03-08T04:46:22;27.77;;;10.53;;
56949;SDS011;74437;50.080;19.924;2024-03-08T04:48:48;20.35;;;9.50;;
56949;SDS011;74437;50.080;19.924;2024-03-08T04:51:13;21.38;;;9.48;;
56949;SDS011;74437;50.080;19.924;2024-03-08T04:53:40;19.45;;;8.85;;
56949;SDS011;74437;50.080;19.924;2024-03-08T04:56:05;21.35;;;10.02;;
56949;SDS011;74437;50.080;19.924;2024-03-08T04:58:32;25.08;;;9.93;;
56949;SDS011;74437;50.080;19.924;2024-03-08T05:01:00;20.48;;;9.27;;
56949;SDS011;74437;50.080;19.924;2024-03-08T05:03:26;21.40;;;8.82;;
56949;SDS011;74437;50.080;19.924;2024-03-08T05:05:51;21.75;;;9.40;;
56949;SDS011;74437;50.080;19.924;2024-03-08T05:08:17;18.60;;;8.10;;
56949;SDS011;74437;50.080;19.924;2024-03-08T05:10:43;23.27;;;10.10;;
56949;SDS011;74437;50.080;19.924;2024-03-08T05:13:09;20.60;;;10.55;;
56949;SDS011;74437;50.080;19.924;2024-03-08T05:15:34;19.25;;;9.00;;
56949;SDS011;74437;50.080;19.924;2024-03-08T05:18:00;20.85;;;10.15;;
56949;SDS011;74437;50.080;19.924;2024-03-08T05:20:25;21.10;;;9.88;;
56949;SDS011;74437;50.080;19.924;2024-03-08T05:22:51;22.58;;;10.57;;
56949;SDS011;74437;50.080;19.924;2024-03-08T05:25:16;20.83;;;9.43;;
56949;SDS011;74437;50.080;19.924;2024-03-08T05:27:42;24.60;;;11.63;;
56949;SDS011;74437;50.080;19.924;2024-03-08T05:30:08;22.98;;;10.95;;
56949;SDS011;74437;50.080;19.924;2024-03-08T05:32:39;23.58;;;11.07;;
56949;SDS011;74437;50.080;19.924;2024-03-08T05:35:05;26.60;;;10.57;;
56949;SDS011;74437;50.080;19.924;2024-03-08T05:37:32;24.92;;;11.85;;
56949;SDS011;74437;50.080;19.924;2024-03-08T05:39:57;23.65;;;12.00;;
56949;SDS011;74437;50.080;19.924;2024-03-08T05:42:23;26.48;;;10.32;;
56949;SDS011;74437;50.080;19.924;2024-03-08T05:44:48;23.88;;;11.18;;
56949;SDS011;74437;50.080;19.924;2024-03-08T05:47:14;26.58;;;11.15;;
56949;SDS011;74437;50.080;19.924;2024-03-08T05:49:41;23.45;;;10.30;;
56949;SDS011;74437;50.080;19.924;2024-03-08T05:54:34;21.15;;;10.10;;
56949;SDS011;74437;50.080;19.924;2024-03-08T05:57:00;26.17;;;10.20;;
56949;SDS011;74437;50.080;19.924;2024-03-08T05:59:26;26.23;;;11.10;;
56949;SDS011;74437;50.080;19.924;2024-03-08T06:01:51;17.92;;;9.05;;
56949;SDS011;74437;50.080;19.924;2024-03-08T06:04:17;21.25;;;9.85;;
56949;SDS011;74437;50.080;19.924;2024-03-08T06:06:43;20.17;;;10.23;;
56949;SDS011;74437;50.080;19.924;2024-03-08T06:09:08;22.40;;;9.75;;
56949;SDS011;74437;50.080;19.924;2024-03-08T06:11:40;21.38;;;9.85;;
56949;SDS011;74437;50.080;19.924;2024-03-08T06:14:07;20.70;;;10.00;;
56949;SDS011;74437;50.080;19.924;2024-03-08T06:16:32;20.92;;;10.60;;
56949;SDS011;74437;50.080;19.924;2024-03-08T06:18:58;24.75;;;9.98;;
56949;SDS011;74437;50.080;19.924;2024-03-08T06:21:24;20.90;;;10.63;;
56949;SDS011;74437;50.080;19.924;2024-03-08T06:23:51;23.25;;;11.23;;
56949;SDS011;74437;50.080;19.924;2024-03-08T06:28:44;17.85;;;9.00;;
56949;SDS011;74437;50.080;19.924;2024-03-08T06:31:10;22.05;;;9.82;;
56949;SDS011;74437;50.080;19.924;2024-03-08T06:33:36;22.75;;;10.68;;
56949;SDS011;74437;50.080;19.924;2024-03-08T06:36:01;22.42;;;9.35;;
56949;SDS011;74437;50.080;19.924;2024-03-08T06:38:26;22.15;;;9.80;;
56949;SDS011;74437;50.080;19.924;2024-03-08T06:40:52;24.50;;;11.02;;
56949;SDS011;74437;50.080;19.924;2024-03-08T06:43:18;22.17;;;10.48;;
56949;SDS011;74437;50.080;19.924;2024-03-08T06:45:44;25.58;;;10.35;;
56949;SDS011;74437;50.080;19.924;2024-03-08T06:48:16;22.30;;;9.45;;
56949;SDS011;74437;50.080;19.924;2024-03-08T06:50:44;29.20;;;11.18;;
56949;SDS011;74437;50.080;19.924;2024-03-08T06:53:11;31.00;;;9.15;;
56949;SDS011;74437;50.080;19.924;2024-03-08T06:55:38;28.07;;;11.73;;
56949;SDS011;74437;50.080;19.924;2024-03-08T06:58:04;26.10;;;11.52;;
56949;SDS011;74437;50.080;19.924;2024-03-08T07:00:29;25.08;;;11.68;;
56949;SDS011;74437;50.080;19.924;2024-03-08T07:02:55;26.30;;;12.38;;
56949;SDS011;74437;50.080;19.924;2024-03-08T07:05:22;25.48;;;11.32;;
56949;SDS011;74437;50.080;19.924;2024-03-08T07:07:49;24.52;;;11.32;;
56949;SDS011;74437;50.080;19.924;2024-03-08T07:10:15;32.05;;;12.77;;
56949;SDS011;74437;50.080;19.924;2024-03-08T07:12:41;24.45;;;11.23;;
56949;SDS011;74437;50.080;19.924;2024-03-08T07:15:07;23.10;;;10.50;;
56949;SDS011;74437;50.080;19.924;2024-03-08T07:17:33;31.50;;;12.50;;
56949;SDS011;74437;50.080;19.924;2024-03-08T07:20:00;32.22;;;12.23;;
56949;SDS011;74437;50.080;19.924;2024-03-08T07:22:32;26.80;;;13.45;;
56949;SDS011;74437;50.080;19.924;2024-03-08T07:24:57;29.48;;;12.27;;
56949;SDS011;74437;50.080;19.924;2024-03-08T07:27:41;29.98;;;12.82;;
56949;SDS011;74437;50.080;19.924;2024-03-08T07:30:06;30.55;;;13.55;;
56949;SDS011;74437;50.080;19.924;2024-03-08T07:35:00;30.63;;;10.57;;
56949;SDS011;74437;50.080;19.924;2024-03-08T07:37:27;25.92;;;12.40;;
56949;SDS011;74437;50.080;19.924;2024-03-08T07:39:52;31.23;;;12.45;;
56949;SDS011;74437;50.080;19.924;2024-03-08T07:42:18;31.60;;;13.68;;
56949;SDS011;74437;50.080;19.924;2024-03-08T07:44:43;44.28;;;15.95;;
56949;SDS011;74437;50.080;19.924;2024-03-08T07:47:08;32.78;;;15.02;;
56949;SDS011;74437;50.080;19.924;2024-03-08T07:49:35;31.13;;;14.20;;
56949;SDS011;74437;50.080;19.924;2024-03-08T07:52:02;38.55;;;14.65;;
56949;SDS011;74437;50.080;19.924;2024-03-08T07:54:29;31.67;;;13.73;;
56949;SDS011;74437;50.080;19.924;2024-03-08T07:56:54;29.80;;;13.25;;
56949;SDS011;74437;50.080;19.924;2024-03-08T07:59:20;32.60;;;13.02;;
56949;SDS011;74437;50.080;19.924;2024-03-08T08:01:46;40.97;;;15.70;;
56949;SDS011;74437;50.080;19.924;2024-03-08T08:04:12;38.10;;;14.75;;
56949;SDS011;74437;50.080;19.924;2024-03-08T08:06:40;35.70;;;13.35;;
56949;SDS011;74437;50.080;19.924;2024-03-08T08:09:08;36.05;;;15.43;;
56949;SDS011;74437;50.080;19.924;2024-03-08T08:11:42;35.78;;;14.77;;
56949;SDS011;74437;50.080;19.924;2024-03-08T08:14:09;37.72;;;15.90;;
56949;SDS011;74437;50.080;19.924;2024-03-08T08:16:35;30.17;;;13.43;;
56949;SDS011;74437;50.080;19.924;2024-03-08T08:19:02;41.58;;;15.70;;
56949;SDS011;74437;50.080;19.924;2024-03-08T08:21:32;29.15;;;13.55;;
56949;SDS011;74437;50.080;19.924;2024-03-08T08:23:58;32.25;;;13.73;;
56949;SDS011;74437;50.080;19.924;2024-03-08T08:26:24;29.20;;;14.80;;
56949;SDS011;74437;50.080;19.924;2024-03-08T08:28:51;42.33;;;15.80;;
56949;SDS011;74437;50.080;19.924;2024-03-08T08:31:18;46.22;;;12.57;;
56949;SDS011;74437;50.080;19.924;2024-03-08T08:33:44;37.50;;;14.57;;
56949;SDS011;74437;50.080;19.924;2024-03-08T08:36:09;31.98;;;13.20;;
56949;SDS011;74437;50.080;19.924;2024-03-08T08:38:35;32.97;;;13.30;;
56949;SDS011;74437;50.080;19.924;2024-03-08T08:41:00;36.28;;;13.32;;
56949;SDS011;74437;50.080;19.924;2024-03-08T08:43:27;34.42;;;12.50;;
56949;SDS011;74437;50.080;19.924;2024-03-08T08:45:53;36.08;;;14.52;;
56949;SDS011;74437;50.080;19.924;2024-03-08T08:48:20;31.65;;;13.98;;
56949;SDS011;74437;50.080;19.924;2024-03-08T08:50:45;33.72;;;13.07;;
56949;SDS011;74437;50.080;19.924;2024-03-08T08:53:11;25.23;;;11.63;;
56949;SDS011;74437;50.080;19.924;2024-03-08T08:55:39;21.02;;;10.00;;
56949;SDS011;74437;50.080;19.924;2024-03-08T08:58:05;28.30;;;12.13;;
56949;SDS011;74437;50.080;19.924;2024-03-08T09:00:32;24.08;;;11.38;;
56949;SDS011;74437;50.080;19.924;2024-03-08T09:02:59;22.50;;;10.77;;
56949;SDS011;74437;50.080;19.924;2024-03-08T09:05:25;37.15;;;12.93;;
56949;SDS011;74437;50.080;19.924;2024-03-08T09:07:51;34.30;;;14.48;;
56949;SDS011;74437;50.080;19.924;2024-03-08T09:10:18;28.90;;;11.05;;
56949;SDS011;74437;50.080;19.924;2024-03-08T09:12:43;34.30;;;14.23;;
56949;SDS011;74437;50.080;19.924;2024-03-08T09:15:09;29.90;;;13.15;;
56949;SDS011;74437;50.080;19.924;2024-03-08T09:17:36;34.15;;;12.50;;
56949;SDS011;74437;50.080;19.924;2024-03-08T09:20:04;25.17;;;11.57;;
56949;SDS011;74437;50.080;19.924;2024-03-08T09:22:31;33.78;;;12.40;;
56949;SDS011;74437;50.080;19.924;2024-03-08T09:24:57;28.45;;;12.40;;
56949;SDS011;74437;50.080;19.924;2024-03-08T09:27:22;24.75;;;12.30;;
56949;SDS011;74437;50.080;19.924;2024-03-08T09:29:48;21.65;;;10.95;;
56949;SDS011;74437;50.080;19.924;2024-03-08T09:32:14;26.33;;;12.05;;
56949;SDS011;74437;50.080;19.924;2024-03-08T09:34:39;31.65;;;11.75;;
56949;SDS011;74437;50.080;19.924;2024-03-08T09:37:05;21.90;;;9.43;;
56949;SDS011;74437;50.080;19.924;2024-03-08T09:39:30;24.80;;;11.23;;
56949;SDS011;74437;50.080;19.924;2024-03-08T09:41:56;22.27;;;10.25;;
56949;SDS011;74437;50.080;19.924;2024-03-08T09:44:21;26.08;;;11.27;;
56949;SDS011;74437;50.080;19.924;2024-03-08T09:46:51;31.08;;;13.82;;
56949;SDS011;74437;50.080;19.924;2024-03-08T09:49:18;25.88;;;12.50;;
56949;SDS011;74437;50.080;19.924;2024-03-08T09:51:44;26.33;;;12.88;;
56949;SDS011;74437;50.080;19.924;2024-03-08T09:54:11;22.30;;;11.55;;
56949;SDS011;74437;50.080;19.924;2024-03-08T09:56:37;25.35;;;11.88;;
56949;SDS011;74437;50.080;19.924;2024-03-08T09:59:06;24.17;;;11.93;;
56949;SDS011;74437;50.080;19.924;2024-03-08T10:01:50;30.17;;;12.35;;
56949;SDS011;74437;50.080;19.924;2024-03-08T10:04:17;25.55;;;13.10;;
56949;SDS011;74437;50.080;19.924;2024-03-08T10:06:45;27.25;;;11.85;;
56949;SDS011;74437;50.080;19.924;2024-03-08T10:09:12;22.67;;;10.87;;
56949;SDS011;74437;50.080;19.924;2024-03-08T10:11:39;25.17;;;12.13;;
56949;SDS011;74437;50.080;19.924;2024-03-08T10:14:05;26.30;;;12.13;;
56949;SDS011;74437;50.080;19.924;2024-03-08T10:16:32;23.17;;;12.23;;
56949;SDS011;74437;50.080;19.924;2024-03-08T10:18:57;19.98;;;11.55;;
56949;SDS011;74437;50.080;19.924;2024-03-08T10:21:22;28.13;;;13.27;;
56949;SDS011;74437;50.080;19.924;2024-03-08T10:23:48;26.33;;;12.40;;
56949;SDS011;74437;50.080;19.924;2024-03-08T10:26:14;25.55;;;12.38;;
56949;SDS011;74437;50.080;19.924;2024-03-08T10:28:44;21.55;;;10.68;;
56949;SDS011;74437;50.080;19.924;2024-03-08T10:31:29;26.05;;;11.75;;
56949;SDS011;74437;50.080;19.924;2024-03-08T10:36:23;21.20;;;10.63;;
56949;SDS011;74437;50.080;19.924;2024-03-08T10:38:50;26.45;;;12.07;;
56949;SDS011;74437;50.080;19.924;2024-03-08T10:41:18;20.60;;;11.18;;
56949;SDS011;74437;50.080;19.924;2024-03-08T10:43:52;21.60;;;11.65;;
56949;SDS011;74437;50.080;19.924;2024-03-08T10:49:06;23.00;;;11.82;;
56949;SDS011;74437;50.080;19.924;2024-03-08T10:51:37;21.05;;;12.20;;
56949;SDS011;74437;50.080;19.924;2024-03-08T10:54:06;24.30;;;12.20;;
56949;SDS011;74437;50.080;19.924;2024-03-08T10:56:35;26.52;;;13.75;;
56949;SDS011;74437;50.080;19.924;2024-03-08T10:59:08;22.98;;;12.57;;
56949;SDS011;74437;50.080;19.924;2024-03-08T11:01:38;22.55;;;12.07;;
56949;SDS011;74437;50.080;19.924;2024-03-08T11:04:05;25.27;;;12.32;;
56949;SDS011;74437;50.080;19.924;2024-03-08T11:06:41;23.70;;;12.93;;
56949;SDS011;74437;50.080;19.924;2024-03-08T11:09:29;24.52;;;13.00;;
56949;SDS011;74437;50.080;19.924;2024-03-08T11:14:54;26.17;;;13.48;;
56949;SDS011;74437;50.080;19.924;2024-03-08T11:19:54;22.95;;;12.52;;
56949;SDS011;74437;50.080;19.924;2024-03-08T11:25:01;22.58;;;11.90;;
56949;SDS011;74437;50.080;19.924;2024-03-08T11:27:31;25.85;;;11.65;;
56949;SDS011;74437;50.080;19.924;2024-03-08T11:30:00;26.52;;;12.10;;
56949;SDS011;74437;50.080;19.924;2024-03-08T11:32:34;24.17;;;11.90;;
56949;SDS011;74437;50.080;19.924;2024-03-08T11:35:00;29.65;;;12.50;;
56949;SDS011;74437;50.080;19.924;2024-03-08T11:37:30;27.02;;;11.68;;
56949;SDS011;74437;50.080;19.924;2024-03-08T11:40:02;25.45;;;11.20;;
56949;SDS011;74437;50.080;19.924;2024-03-08T11:42:37;24.63;;;12.13;;
56949;SDS011;74437;50.080;19.924;2024-03-08T11:45:07;21.40;;;10.32;;
56949;SDS011;74437;50.080;19.924;2024-03-08T11:47:35;23.35;;;11.32;;
56949;SDS011;74437;50.080;19.924;2024-03-08T11:50:00;26.20;;;10.98;;
56949;SDS011;74437;50.080;19.924;2024-03-08T11:52:28;29.98;;;12.55;;
56949;SDS011;74437;50.080;19.924;2024-03-08T11:54:54;31.02;;;12.63;;
56949;SDS011;74437;50.080;19.924;2024-03-08T11:57:22;24.50;;;11.90;;
56949;SDS011;74437;50.080;19.924;2024-03-08T11:59:55;23.10;;;11.02;;
56949;SDS011;74437;50.080;19.924;2024-03-08T12:02:26;20.23;;;10.32;;
56949;SDS011;74437;50.080;19.924;2024-03-08T12:04:59;20.40;;;10.90;;
56949;SDS011;74437;50.080;19.924;2024-03-08T12:07:25;23.20;;;11.18;;
56949;SDS011;74437;50.080;19.924;2024-03-08T12:12:48;25.08;;;11.75;;
56949;SDS011;74437;50.080;19.924;2024-03-08T12:15:16;25.63;;;12.13;;
56949;SDS011;74437;50.080;19.924;2024-03-08T12:17:43;22.27;;;10.52;;
56949;SDS011;74437;50.080;19.924;2024-03-08T12:20:18;26.00;;;12.98;;
56949;SDS011;74437;50.080;19.924;2024-03-08T12:22:49;24.67;;;12.25;;
56949;SDS011;74437;50.080;19.924;2024-03-08T12:25:17;26.58;;;11.32;;
56949;SDS011;74437;50.080;19.924;2024-03-08T12:27:43;29.20;;;12.40;;
56949;SDS011;74437;50.080;19.924;2024-03-08T12:30:18;23.48;;;10.82;;
56949;SDS011;74437;50.080;19.924;2024-03-08T12:32:53;21.87;;;10.60;;
56949;SDS011;74437;50.080;19.924;2024-03-08T12:35:22;27.58;;;12.25;;
56949;SDS011;74437;50.080;19.924;2024-03-08T12:37:52;24.40;;;11.80;;
56949;SDS011;74437;50.080;19.924;2024-03-08T12:40:29;26.60;;;12.32;;
56949;SDS011;74437;50.080;19.924;2024-03-08T12:43:00;24.70;;;10.65;;
56949;SDS011;74437;50.080;19.924;2024-03-08T12:45:28;25.42;;;12.98;;
56949;SDS011;74437;50.080;19.924;2024-03-08T12:47:54;25.83;;;12.55;;
56949;SDS011;74437;50.080;19.924;2024-03-08T12:50:20;32.60;;;11.63;;
56949;SDS011;74437;50.080;19.924;2024-03-08T12:52:46;24.85;;;11.43;;
56949;SDS011;74437;50.080;19.924;2024-03-08T12:55:13;28.33;;;12.38;;
56949;SDS011;74437;50.080;19.924;2024-03-08T12:57:39;22.27;;;11.35;;
56949;SDS011;74437;50.080;19.924;2024-03-08T13:00:06;26.17;;;11.40;;
56949;SDS011;74437;50.080;19.924;2024-03-08T13:02:38;24.40;;;11.20;;
56949;SDS011;74437;50.080;19.924;2024-03-08T13:05:04;30.63;;;12.48;;
56949;SDS011;74437;50.080;19.924;2024-03-08T13:07:30;24.20;;;11.35;;
56949;SDS011;74437;50.080;19.924;2024-03-08T13:09:56;23.65;;;11.48;;
56949;SDS011;74437;50.080;19.924;2024-03-08T13:12:24;27.63;;;11.98;;
56949;SDS011;74437;50.080;19.924;2024-03-08T13:14:50;23.13;;;10.43;;
56949;SDS011;74437;50.080;19.924;2024-03-08T13:17:15;23.25;;;11.30;;
56949;SDS011;74437;50.080;19.924;2024-03-08T13:19:43;25.75;;;11.90;;
56949;SDS011;74437;50.080;19.924;2024-03-08T13:22:11;24.67;;;11.80;;
56949;SDS011;74437;50.080;19.924;2024-03-08T13:24:42;25.77;;;12.55;;
56949;SDS011;74437;50.080;19.924;2024-03-08T13:27:08;26.38;;;11.80;;
56949;SDS011;74437;50.080;19.924;2024-03-08T13:29:47;25.90;;;11.38;;
56949;SDS011;74437;50.080;19.924;2024-03-08T13:32:15;24.40;;;11.50;;
56949;SDS011;74437;50.080;19.924;2024-03-08T13:34:41;23.95;;;10.70;;
56949;SDS011;74437;50.080;19.924;2024-03-08T13:37:07;28.65;;;12.10;;
56949;SDS011;74437;50.080;19.924;2024-03-08T13:39:34;26.30;;;11.90;;
56949;SDS011;74437;50.080;19.924;2024-03-08T13:42:06;27.73;;;13.88;;
56949;SDS011;74437;50.080;19.924;2024-03-08T13:44:34;23.27;;;11.82;;
56949;SDS011;74437;50.080;19.924;2024-03-08T13:47:01;28.33;;;12.35;;
56949;SDS011;74437;50.080;19.924;2024-03-08T13:49:29;29.30;;;12.07;;
56949;SDS011;74437;50.080;19.924;2024-03-08T13:51:54;25.17;;;11.52;;
56949;SDS011;74437;50.080;19.924;2024-03-08T13:54:20;25.02;;;11.98;;
56949;SDS011;74437;50.080;19.924;2024-03-08T13:56:46;28.80;;;13.30;;
56949;SDS011;74437;50.080;19.924;2024-03-08T13:59:12;29.55;;;11.63;;
56949;SDS011;74437;50.080;19.924;2024-03-08T14:01:38;23.30;;;11.95;;
56949;SDS011;74437;50.080;19.924;2024-03-08T14:04:03;26.13;;;12.95;;
56949;SDS011;74437;50.080;19.924;2024-03-08T14:06:28;24.48;;;12.27;;
56949;SDS011;74437;50.080;19.924;2024-03-08T14:08:55;30.25;;;12.05;;
56949;SDS011;74437;50.080;19.924;2024-03-08T14:11:21;28.20;;;12.40;;
56949;SDS011;74437;50.080;19.924;2024-03-08T14:13:48;28.52;;;12.50;;
56949;SDS011;74437;50.080;19.924;2024-03-08T14:16:14;27.77;;;12.80;;
56949;SDS011;74437;50.080;19.924;2024-03-08T14:18:40;26.73;;;12.20;;
56949;SDS011;74437;50.080;19.924;2024-03-08T14:21:07;25.13;;;11.73;;
56949;SDS011;74437;50.080;19.924;2024-03-08T14:23:33;25.10;;;11.80;;
56949;SDS011;74437;50.080;19.924;2024-03-08T14:25:59;26.05;;;12.20;;
56949;SDS011;74437;50.080;19.924;2024-03-08T14:28:24;26.80;;;12.15;;
56949;SDS011;74437;50.080;19.924;2024-03-08T14:30:52;25.63;;;12.57;;
56949;SDS011;74437;50.080;19.924;2024-03-08T14:33:18;28.80;;;12.50;;
56949;SDS011;74437;50.080;19.924;2024-03-08T14:35:44;28.08;;;12.38;;
56949;SDS011;74437;50.080;19.924;2024-03-08T14:38:10;23.92;;;11.90;;
56949;SDS011;74437;50.080;19.924;2024-03-08T14:40:37;24.85;;;11.25;;
56949;SDS011;74437;50.080;19.924;2024-03-08T14:43:03;26.70;;;11.90;;
56949;SDS011;74437;50.080;19.924;2024-03-08T14:45:30;35.97;;;13.23;;
56949;SDS011;74437;50.080;19.924;2024-03-08T14:47:56;26.98;;;11.95;;
56949;SDS011;74437;50.080;19.924;2024-03-08T14:50:22;25.27;;;11.27;;
56949;SDS011;74437;50.080;19.924;2024-03-08T14:52:49;31.48;;;12.52;;
56949;SDS011;74437;50.080;19.924;2024-03-08T14:55:15;24.83;;;11.10;;
56949;SDS011;74437;50.080;19.924;2024-03-08T14:57:41;23.73;;;11.27;;
56949;SDS011;74437;50.080;19.924;2024-03-08T15:00:10;24.42;;;11.60;;
56949;SDS011;74437;50.080;19.924;2024-03-08T15:03:01;26.77;;;11.95;;
56949;SDS011;74437;50.080;19.924;2024-03-08T15:05:38;21.42;;;11.02;;
56949;SDS011;74437;50.080;19.924;2024-03-08T15:08:07;23.85;;;12.05;;